createdAt,value
2023-07-12T00:05:36.212Z,49.50
2023-07-12T00:11:02.381Z,49.80
2023-07-12T00:16:41.488Z,49.90
2023-07-12T00:22:06.459Z,50.40
2023-07-12T00:27:41.550Z,50.90
2023-07-12T00:33:10.457Z,51.50
2023-07-12T00:38:48.294Z,51.60
2023-07-12T00:44:20.008Z,51.50
2023-07-12T00:49:59.405Z,51.20
2023-07-12T00:55:38.815Z,51.30
2023-07-12T01:01:15.108Z,51.50
2023-07-12T01:06:41.204Z,51.50
2023-07-12T01:12:20.061Z,51.70
2023-07-12T01:17:44.929Z,51.60
2023-07-12T01:23:21.368Z,52.30
2023-07-12T01:28:46.262Z,52.30
2023-07-12T01:34:24.895Z,52.40
2023-07-12T01:39:48.122Z,52.30
2023-07-12T01:45:25.514Z,52.30
2023-07-12T01:50:47.640Z,52.50
2023-07-12T01:56:23.676Z,52.40
2023-07-12T02:01:44.468Z,52.50
2023-07-12T02:07:21.298Z,52.10
2023-07-12T02:12:44.348Z,51.70
2023-07-12T02:18:21.262Z,52.30
2023-07-12T02:23:46.700Z,52.70
2023-07-12T02:29:25.611Z,52.70
2023-07-12T02:34:51.452Z,52.50
2023-07-12T02:40:23.831Z,52.70
2023-07-12T02:45:48.054Z,52.60
2023-07-12T02:51:24.536Z,52.80
2023-07-12T02:56:47.317Z,53.10
2023-07-12T03:02:23.006Z,53.20
2023-07-12T03:07:46.130Z,53.00
2023-07-12T03:13:19.402Z,52.20
2023-07-12T03:18:41.210Z,51.90
2023-07-12T03:24:17.342Z,52.00
2023-07-12T03:29:39.376Z,52.00
2023-07-12T03:35:14.317Z,52.40
2023-07-12T03:40:38.882Z,52.80
2023-07-12T03:46:14.073Z,52.30
2023-07-12T03:51:33.472Z,52.30
2023-07-12T03:57:08.184Z,52.60
2023-07-12T04:02:31.946Z,52.90
2023-07-12T04:08:04.799Z,53.00
2023-07-12T04:13:26.036Z,53.10
2023-07-12T04:18:55.275Z,52.90
2023-07-12T04:24:16.593Z,53.00
2023-07-12T04:29:50.401Z,52.70
2023-07-12T04:35:11.902Z,52.80
2023-07-12T04:40:42.825Z,52.60
2023-07-12T04:46:01.338Z,52.00
2023-07-12T04:51:29.002Z,52.60
2023-07-12T04:56:45.283Z,52.40
2023-07-12T05:02:15.966Z,51.70
2023-07-12T05:07:35.300Z,51.30
2023-07-12T05:13:06.826Z,51.10
2023-07-12T05:18:28.772Z,50.40
2023-07-12T05:23:59.006Z,49.70
2023-07-12T05:29:19.051Z,49.70
2023-07-12T05:34:50.377Z,49.10
2023-07-12T05:40:13.189Z,48.70
2023-07-12T05:45:45.497Z,48.50
2023-07-12T05:51:05.477Z,48.30
2023-07-12T05:58:08.439Z,48.50
2023-07-12T06:03:26.090Z,48.20
2023-07-12T06:08:57.228Z,48.70
2023-07-12T06:14:10.832Z,48.50
2023-07-12T06:19:39.585Z,47.90
2023-07-12T06:24:59.486Z,47.20
2023-07-12T06:30:37.053Z,47.20
2023-07-12T06:35:57.620Z,46.20
2023-07-12T06:41:29.516Z,45.60
2023-07-12T06:46:51.415Z,44.80
2023-07-12T06:52:22.743Z,44.50
2023-07-12T06:57:44.858Z,43.70
2023-07-12T07:03:20.166Z,43.10
2023-07-12T07:08:37.818Z,43.50
2023-07-12T07:14:12.677Z,42.90
2023-07-12T07:19:34.085Z,42.50
2023-07-12T07:25:15.468Z,42.20
2023-07-12T07:30:36.180Z,41.00
2023-07-12T07:36:10.198Z,40.40
2023-07-12T07:41:25.026Z,39.80
2023-07-12T07:46:55.278Z,38.90
2023-07-12T07:52:14.881Z,37.80
2023-07-12T07:57:47.377Z,37.70
2023-07-12T08:03:05.230Z,37.50
2023-07-12T08:08:36.525Z,37.60
2023-07-12T08:13:48.809Z,36.60
2023-07-12T08:19:18.738Z,38.20
2023-07-12T08:24:37.261Z,39.40
2023-07-12T08:30:10.583Z,41.40
2023-07-12T08:41:01.845Z,40.90
2023-07-12T08:46:23.584Z,40.70
2023-07-12T08:51:51.842Z,40.10
2023-07-12T08:57:19.476Z,39.90
2023-07-12T09:02:48.494Z,39.80
2023-07-12T09:08:10.118Z,39.50
2023-07-12T09:13:41.333Z,38.90
2023-07-12T09:18:58.866Z,38.20
2023-07-12T09:24:33.555Z,37.60
2023-07-12T09:30:00.785Z,36.30
2023-07-12T09:35:33.513Z,36.70
2023-07-12T09:40:49.898Z,35.60
2023-07-12T09:46:38.373Z,35.20
2023-07-12T09:51:56.346Z,34.90
2023-07-12T09:57:42.383Z,35.10
2023-07-12T10:03:23.341Z,35.10
2023-07-12T10:09:13.877Z,35.10
2023-07-12T10:14:39.032Z,34.90
2023-07-12T10:20:07.240Z,33.90
2023-07-12T10:25:32.732Z,33.80
2023-07-12T10:31:09.582Z,33.60
2023-07-12T10:36:27.522Z,33.30
2023-07-12T10:42:00.056Z,32.90
2023-07-12T10:47:21.933Z,32.80
2023-07-12T10:52:57.530Z,32.20
2023-07-12T10:58:15.283Z,31.60
2023-07-12T11:03:46.733Z,31.70
2023-07-12T11:09:05.088Z,31.50
2023-07-12T11:14:37.941Z,31.70
2023-07-12T11:20:02.587Z,31.50
2023-07-12T11:25:53.930Z,31.60
2023-07-12T11:31:11.374Z,31.60
2023-07-12T11:36:41.078Z,31.50
2023-07-12T11:42:09.868Z,31.10
2023-07-12T11:47:43.248Z,31.40
2023-07-12T11:53:03.281Z,31.30
2023-07-12T11:58:36.221Z,31.50
2023-07-12T12:03:55.798Z,31.70
2023-07-12T12:09:27.544Z,31.60
2023-07-12T12:14:47.768Z,31.80
2023-07-12T12:20:23.469Z,32.30
2023-07-12T12:25:46.392Z,31.70
2023-07-12T12:31:21.371Z,31.80
2023-07-12T12:36:37.225Z,32.00
2023-07-12T12:42:20.190Z,31.90
2023-07-12T12:47:39.386Z,32.30
2023-07-12T13:01:15.550Z,32.80
2023-07-12T13:20:50.744Z,32.20
2023-07-12T13:26:24.772Z,32.50
2023-07-12T13:31:41.229Z,32.70
2023-07-12T13:37:27.507Z,32.60
2023-07-12T13:42:57.817Z,32.80
2023-07-12T13:48:30.176Z,32.90
2023-07-12T13:53:49.260Z,31.90
2023-07-12T13:59:20.200Z,31.90
2023-07-12T14:04:38.720Z,31.70
2023-07-12T14:10:26.267Z,31.90
2023-07-12T14:15:44.133Z,31.50
2023-07-12T14:21:16.487Z,32.20
2023-07-12T14:26:36.802Z,32.10
2023-07-12T14:32:18.636Z,32.60
2023-07-12T14:37:40.469Z,32.20
2023-07-12T14:43:15.332Z,32.10
2023-07-12T14:48:33.397Z,32.60
2023-07-12T14:54:13.052Z,32.30
2023-07-12T14:59:35.631Z,32.90
2023-07-12T15:05:08.157Z,32.50
2023-07-12T15:10:28.419Z,32.80
2023-07-12T15:15:56.843Z,32.50
2023-07-12T15:21:16.905Z,32.60
2023-07-12T15:26:49.740Z,33.00
2023-07-12T15:32:14.425Z,32.70
2023-07-12T15:37:46.055Z,33.20
2023-07-12T15:43:10.358Z,33.60
2023-07-12T15:48:40.156Z,33.70
2023-07-12T15:54:14.744Z,34.10
2023-07-12T15:59:47.681Z,33.90
2023-07-12T16:05:13.592Z,34.40
2023-07-12T16:10:46.563Z,34.10
2023-07-12T16:16:13.729Z,34.00
2023-07-12T16:21:47.765Z,34.70
2023-07-12T16:27:06.957Z,34.20
2023-07-12T16:32:39.893Z,33.90
2023-07-12T16:38:07.014Z,33.80
2023-07-12T16:43:39.626Z,34.00
2023-07-12T16:49:05.583Z,34.00
2023-07-12T16:54:38.136Z,34.00
2023-07-12T17:00:00.672Z,33.40
2023-07-12T17:05:36.711Z,32.90
2023-07-12T17:11:03.988Z,33.60
2023-07-12T17:16:39.483Z,33.20
2023-07-12T17:22:01.117Z,33.60
2023-07-12T17:27:37.152Z,33.50
2023-07-12T17:33:01.593Z,33.20
2023-07-12T17:38:38.985Z,33.60
2023-07-12T17:44:01.480Z,33.50
2023-07-12T17:49:35.729Z,34.00
2023-07-12T17:55:02.763Z,34.00
2023-07-12T18:00:43.748Z,33.40
2023-07-12T18:06:13.421Z,33.30
2023-07-12T18:11:52.074Z,33.40
2023-07-12T18:17:22.691Z,33.90
2023-07-12T18:23:01.734Z,34.10
2023-07-12T18:28:26.593Z,33.70
2023-07-12T18:34:07.286Z,34.20
2023-07-12T18:39:34.596Z,34.40
2023-07-12T18:45:20.539Z,34.30
2023-07-12T18:50:48.078Z,34.60
2023-07-12T18:56:31.016Z,34.50
2023-07-12T19:01:58.114Z,34.40
2023-07-12T19:07:32.222Z,34.60
2023-07-12T19:12:56.404Z,35.60
2023-07-12T19:18:30.154Z,35.70
2023-07-12T19:23:55.894Z,35.90
2023-07-12T19:29:30.814Z,36.80
2023-07-12T19:34:59.141Z,36.50
2023-07-12T19:40:31.768Z,36.50
2023-07-12T19:45:53.609Z,36.10
2023-07-12T19:51:29.104Z,36.00
2023-07-12T19:56:54.401Z,35.60
2023-07-12T20:02:30.140Z,35.60
2023-07-12T20:07:55.241Z,35.50
2023-07-12T20:13:30.905Z,35.30
2023-07-12T20:18:55.737Z,34.80
2023-07-12T20:24:29.366Z,34.80
2023-07-12T20:29:55.865Z,34.80
2023-07-12T20:35:30.756Z,34.50
2023-07-12T20:40:53.438Z,34.80
2023-07-12T20:46:29.177Z,35.10
2023-07-12T20:51:53.442Z,35.10
2023-07-12T20:57:31.397Z,35.20
2023-07-12T21:02:55.595Z,35.50
2023-07-12T21:08:27.703Z,35.50
2023-07-12T21:13:51.970Z,35.50
2023-07-12T21:19:25.146Z,35.70
2023-07-12T21:24:48.501Z,35.90
2023-07-12T21:30:24.306Z,36.00
2023-07-12T21:35:48.652Z,36.30
2023-07-12T21:41:24.584Z,36.30
2023-07-12T21:46:44.863Z,36.80
2023-07-12T21:52:14.675Z,37.10
2023-07-12T21:57:38.102Z,36.80
2023-07-12T22:03:13.314Z,36.60
2023-07-12T22:08:39.314Z,37.00
2023-07-12T22:14:13.847Z,37.00
2023-07-12T22:19:33.371Z,36.80
2023-07-12T22:25:09.231Z,37.10
2023-07-12T22:30:34.292Z,37.10
2023-07-12T22:36:09.461Z,36.80
2023-07-12T22:41:30.191Z,37.30
2023-07-12T22:47:00.528Z,37.40
2023-07-12T22:52:19.818Z,38.00
2023-07-12T22:57:49.887Z,38.00
2023-07-12T23:03:10.634Z,37.80
2023-07-12T23:08:42.265Z,38.40
2023-07-12T23:14:04.369Z,38.30
2023-07-12T23:19:39.735Z,38.50
2023-07-12T23:25:02.781Z,38.80
2023-07-12T23:30:38.519Z,38.60
2023-07-12T23:35:58.304Z,39.50
2023-07-12T23:41:34.469Z,39.80
2023-07-12T23:46:55.196Z,39.90
2023-07-12T23:52:28.363Z,40.50
2023-07-12T23:57:49.908Z,40.60
